sensor_id;sensor_type;location;lat;lon;timestamp;temperature;humidity
60039;DHT22;45916;52.734;6.544;2023-12-20T00:01:05;6.20;99.90
60039;DHT22;45916;52.734;6.544;2023-12-20T00:03:31;6.10;99.90
60039;DHT22;45916;52.734;6.544;2023-12-20T00:05:57;6.20;99.90
60039;DHT22;45916;52.734;6.544;2023-12-20T00:08:22;6.30;99.90
60039;DHT22;45916;52.734;6.544;2023-12-20T00:10:48;6.30;99.90
60039;DHT22;45916;52.734;6.544;2023-12-20T00:13:14;6.40;99.90
60039;DHT22;45916;52.734;6.544;2023-12-20T00:15:40;6.40;99.90
60039;DHT22;45916;52.734;6.544;2023-12-20T00:18:05;6.50;99.90
60039;DHT22;45916;52.734;6.544;2023-12-20T00:20:31;6.40;99.90
60039;DHT22;45916;52.734;6.544;2023-12-20T00:22:57;6.40;99.90
60039;DHT22;45916;52.734;6.544;2023-12-20T00:25:24;6.30;99.90
60039;DHT22;45916;52.734;6.544;2023-12-20T00:27:49;6.20;99.90
60039;DHT22;45916;52.734;6.544;2023-12-20T00:30:16;6.00;99.90
60039;DHT22;45916;52.734;6.544;2023-12-20T00:32:42;5.90;99.90
60039;DHT22;45916;52.734;6.544;2023-12-20T00:35:15;5.80;99.90
60039;DHT22;45916;52.734;6.544;2023-12-20T00:37:41;5.70;99.90
60039;DHT22;45916;52.734;6.544;2023-12-20T00:40:07;5.70;99.90
60039;DHT22;45916;52.734;6.544;2023-12-20T00:42:33;5.70;99.90
60039;DHT22;45916;52.734;6.544;2023-12-20T00:44:59;5.60;99.90
60039;DHT22;45916;52.734;6.544;2023-12-20T00:47:25;5.60;99.90
60039;DHT22;45916;52.734;6.544;2023-12-20T00:49:51;5.60;99.90
60039;DHT22;45916;52.734;6.544;2023-12-20T00:52:17;5.70;99.90
60039;DHT22;45916;52.734;6.544;2023-12-20T00:54:44;5.70;99.90
60039;DHT22;45916;52.734;6.544;2023-12-20T00:57:10;5.60;99.90
60039;DHT22;45916;52.734;6.544;2023-12-20T00:59:36;5.60;99.90
60039;DHT22;45916;52.734;6.544;2023-12-20T01:02:02;5.60;99.90
60039;DHT22;45916;52.734;6.544;2023-12-20T01:04:28;5.60;99.90
60039;DHT22;45916;52.734;6.544;2023-12-20T01:06:53;5.70;99.90
60039;DHT22;45916;52.734;6.544;2023-12-20T01:09:19;5.70;99.90
60039;DHT22;45916;52.734;6.544;2023-12-20T01:11:49;5.70;99.90
60039;DHT22;45916;52.734;6.544;2023-12-20T01:14:14;5.70;99.90
60039;DHT22;45916;52.734;6.544;2023-12-20T01:16:40;5.80;99.90
60039;DHT22;45916;52.734;6.544;2023-12-20T01:19:06;5.90;99.90
60039;DHT22;45916;52.734;6.544;2023-12-20T01:21:32;6.10;99.90
60039;DHT22;45916;52.734;6.544;2023-12-20T01:23:58;6.10;99.90
60039;DHT22;45916;52.734;6.544;2023-12-20T01:26:23;6.10;99.90
60039;DHT22;45916;52.734;6.544;2023-12-20T01:28:49;6.00;99.90
60039;DHT22;45916;52.734;6.544;2023-12-20T01:31:15;6.00;99.90
60039;DHT22;45916;52.734;6.544;2023-12-20T01:33:41;6.00;99.90
60039;DHT22;45916;52.734;6.544;2023-12-20T01:36:06;5.90;99.90
60039;DHT22;45916;52.734;6.544;2023-12-20T01:38:32;5.80;99.90
60039;DHT22;45916;52.734;6.544;2023-12-20T01:40:58;5.80;99.90
60039;DHT22;45916;52.734;6.544;2023-12-20T01:43:24;5.90;99.90
60039;DHT22;45916;52.734;6.544;2023-12-20T01:45:50;5.70;99.90
60039;DHT22;45916;52.734;6.544;2023-12-20T01:48:17;5.70;99.90
60039;DHT22;45916;52.734;6.544;2023-12-20T01:50:44;5.70;99.90
60039;DHT22;45916;52.734;6.544;2023-12-20T01:53:12;5.70;99.90
60039;DHT22;45916;52.734;6.544;2023-12-20T01:55:40;5.80;99.90
60039;DHT22;45916;52.734;6.544;2023-12-20T01:58:09;5.70;99.90
60039;DHT22;45916;52.734;6.544;2023-12-20T02:00:40;5.70;99.90
60039;DHT22;45916;52.734;6.544;2023-12-20T02:03:06;5.70;99.90
60039;DHT22;45916;52.734;6.544;2023-12-20T02:05:34;5.80;99.90
60039;DHT22;45916;52.734;6.544;2023-12-20T02:08:00;5.80;99.90
60039;DHT22;45916;52.734;6.544;2023-12-20T02:10:27;5.80;99.90
60039;DHT22;45916;52.734;6.544;2023-12-20T02:12:54;5.80;99.90
60039;DHT22;45916;52.734;6.544;2023-12-20T02:15:20;5.90;99.90
60039;DHT22;45916;52.734;6.544;2023-12-20T02:17:47;6.00;99.90
60039;DHT22;45916;52.734;6.544;2023-12-20T02:20:14;6.10;99.90
60039;DHT22;45916;52.734;6.544;2023-12-20T02:22:39;6.20;99.90
60039;DHT22;45916;52.734;6.544;2023-12-20T02:25:06;6.30;99.90
60039;DHT22;45916;52.734;6.544;2023-12-20T02:27:32;6.40;99.90
60039;DHT22;45916;52.734;6.544;2023-12-20T02:29:57;6.30;99.90
60039;DHT22;45916;52.734;6.544;2023-12-20T02:32:24;6.30;99.90
60039;DHT22;45916;52.734;6.544;2023-12-20T02:34:55;6.40;99.90
60039;DHT22;45916;52.734;6.544;2023-12-20T02:37:21;6.40;99.90
60039;DHT22;45916;52.734;6.544;2023-12-20T02:39:47;6.50;99.90
60039;DHT22;45916;52.734;6.544;2023-12-20T02:42:13;6.50;99.90
60039;DHT22;45916;52.734;6.544;2023-12-20T02:44:39;6.60;99.90
60039;DHT22;45916;52.734;6.544;2023-12-20T02:47:04;6.70;99.90
60039;DHT22;45916;52.734;6.544;2023-12-20T02:49:30;6.60;99.90
60039;DHT22;45916;52.734;6.544;2023-12-20T02:51:56;6.60;99.90
60039;DHT22;45916;52.734;6.544;2023-12-20T02:54:23;6.60;99.90
60039;DHT22;45916;52.734;6.544;2023-12-20T02:56:49;6.60;99.90
60039;DHT22;45916;52.734;6.544;2023-12-20T02:59:14;6.70;99.90
60039;DHT22;45916;52.734;6.544;2023-12-20T03:01:45;6.70;99.90
60039;DHT22;45916;52.734;6.544;2023-12-20T03:04:12;6.70;99.90
60039;DHT22;45916;52.734;6.544;2023-12-20T03:06:38;6.70;99.90
60039;DHT22;45916;52.734;6.544;2023-12-20T03:09:07;6.70;99.90
60039;DHT22;45916;52.734;6.544;2023-12-20T03:11:33;6.60;99.90
60039;DHT22;45916;52.734;6.544;2023-12-20T03:13:58;6.60;99.90
60039;DHT22;45916;52.734;6.544;2023-12-20T03:16:24;6.60;99.90
60039;DHT22;45916;52.734;6.544;2023-12-20T03:18:50;6.60;99.90
60039;DHT22;45916;52.734;6.544;2023-12-20T03:21:15;6.70;99.90
60039;DHT22;45916;52.734;6.544;2023-12-20T03:23:41;6.60;99.90
60039;DHT22;45916;52.734;6.544;2023-12-20T03:26:08;6.70;99.90
60039;DHT22;45916;52.734;6.544;2023-12-20T03:28:34;6.70;99.90
60039;DHT22;45916;52.734;6.544;2023-12-20T03:31:00;6.70;99.90
60039;DHT22;45916;52.734;6.544;2023-12-20T03:33:25;6.50;99.90
60039;DHT22;45916;52.734;6.544;2023-12-20T03:35:51;6.50;99.90
60039;DHT22;45916;52.734;6.544;2023-12-20T03:38:17;6.40;99.90
60039;DHT22;45916;52.734;6.544;2023-12-20T03:40:43;6.40;99.90
60039;DHT22;45916;52.734;6.544;2023-12-20T03:43:09;6.30;99.90
60039;DHT22;45916;52.734;6.544;2023-12-20T03:45:34;6.30;99.90
60039;DHT22;45916;52.734;6.544;2023-12-20T03:48:04;6.30;99.90
60039;DHT22;45916;52.734;6.544;2023-12-20T03:50:30;6.40;99.90
60039;DHT22;45916;52.734;6.544;2023-12-20T03:52:55;6.40;99.90
60039;DHT22;45916;52.734;6.544;2023-12-20T03:55:21;6.40;99.90
60039;DHT22;45916;52.734;6.544;2023-12-20T03:57:47;6.50;99.90
60039;DHT22;45916;52.734;6.544;2023-12-20T04:00:13;6.60;99.90
60039;DHT22;45916;52.734;6.544;2023-12-20T04:02:39;6.60;99.90
60039;DHT22;45916;52.734;6.544;2023-12-20T04:05:06;6.60;99.90
60039;DHT22;45916;52.734;6.544;2023-12-20T04:07:33;6.50;99.90
60039;DHT22;45916;52.734;6.544;2023-12-20T04:10:00;6.50;99.90
60039;DHT22;45916;52.734;6.544;2023-12-20T04:12:27;6.50;99.90
60039;DHT22;45916;52.734;6.544;2023-12-20T04:14:53;6.50;99.90
60039;DHT22;45916;52.734;6.544;2023-12-20T04:17:20;6.50;99.90
60039;DHT22;45916;52.734;6.544;2023-12-20T04:19:46;6.50;99.90
60039;DHT22;45916;52.734;6.544;2023-12-20T04:22:11;6.60;99.90
60039;DHT22;45916;52.734;6.544;2023-12-20T04:24:37;6.70;99.90
60039;DHT22;45916;52.734;6.544;2023-12-20T04:27:04;6.70;99.90
60039;DHT22;45916;52.734;6.544;2023-12-20T04:29:30;6.80;99.90
60039;DHT22;45916;52.734;6.544;2023-12-20T04:31:56;6.80;99.90
60039;DHT22;45916;52.734;6.544;2023-12-20T04:34:22;6.80;99.90
60039;DHT22;45916;52.734;6.544;2023-12-20T04:36:53;6.80;99.90
60039;DHT22;45916;52.734;6.544;2023-12-20T04:39:22;6.80;99.90
60039;DHT22;45916;52.734;6.544;2023-12-20T04:41:48;6.80;99.90
60039;DHT22;45916;52.734;6.544;2023-12-20T04:44:14;6.90;99.90
60039;DHT22;45916;52.734;6.544;2023-12-20T04:46:40;6.90;99.90
60039;DHT22;45916;52.734;6.544;2023-12-20T04:49:06;6.90;99.90
60039;DHT22;45916;52.734;6.544;2023-12-20T04:51:35;7.00;99.90
60039;DHT22;45916;52.734;6.544;2023-12-20T04:54:01;7.00;99.90
60039;DHT22;45916;52.734;6.544;2023-12-20T04:56:27;7.00;99.90
60039;DHT22;45916;52.734;6.544;2023-12-20T04:58:53;7.00;99.90
60039;DHT22;45916;52.734;6.544;2023-12-20T05:01:19;7.00;99.90
60039;DHT22;45916;52.734;6.544;2023-12-20T05:03:44;7.00;99.90
60039;DHT22;45916;52.734;6.544;2023-12-20T05:06:10;7.10;99.90
60039;DHT22;45916;52.734;6.544;2023-12-20T05:08:36;7.00;99.90
60039;DHT22;45916;52.734;6.544;2023-12-20T05:11:06;7.10;99.90
60039;DHT22;45916;52.734;6.544;2023-12-20T05:13:32;7.10;99.90
60039;DHT22;45916;52.734;6.544;2023-12-20T05:15:58;7.10;99.90
60039;DHT22;45916;52.734;6.544;2023-12-20T05:18:24;7.10;99.90
60039;DHT22;45916;52.734;6.544;2023-12-20T05:20:50;7.00;99.90
60039;DHT22;45916;52.734;6.544;2023-12-20T05:23:17;7.00;99.90
60039;DHT22;45916;52.734;6.544;2023-12-20T05:25:43;7.00;99.90
60039;DHT22;45916;52.734;6.544;2023-12-20T05:28:08;7.20;99.90
60039;DHT22;45916;52.734;6.544;2023-12-20T05:30:34;7.10;99.90
60039;DHT22;45916;52.734;6.544;2023-12-20T05:33:00;7.10;99.90
60039;DHT22;45916;52.734;6.544;2023-12-20T05:35:26;7.20;99.90
60039;DHT22;45916;52.734;6.544;2023-12-20T05:37:52;7.20;99.90
60039;DHT22;45916;52.734;6.544;2023-12-20T05:40:18;7.30;99.90
60039;DHT22;45916;52.734;6.544;2023-12-20T05:42:43;7.30;99.90
60039;DHT22;45916;52.734;6.544;2023-12-20T05:45:09;7.30;99.90
60039;DHT22;45916;52.734;6.544;2023-12-20T05:47:36;7.30;99.90
60039;DHT22;45916;52.734;6.544;2023-12-20T05:50:02;7.40;99.90
60039;DHT22;45916;52.734;6.544;2023-12-20T05:52:28;7.40;99.90
60039;DHT22;45916;52.734;6.544;2023-12-20T05:54:54;7.40;99.90
60039;DHT22;45916;52.734;6.544;2023-12-20T05:57:19;7.40;99.90
60039;DHT22;45916;52.734;6.544;2023-12-20T05:59:45;7.40;99.90
60039;DHT22;45916;52.734;6.544;2023-12-20T06:02:11;7.40;99.90
60039;DHT22;45916;52.734;6.544;2023-12-20T06:04:37;7.30;99.90
60039;DHT22;45916;52.734;6.544;2023-12-20T06:07:03;7.30;99.90
60039;DHT22;45916;52.734;6.544;2023-12-20T06:09:29;7.40;99.90
60039;DHT22;45916;52.734;6.544;2023-12-20T06:11:55;7.40;99.90
60039;DHT22;45916;52.734;6.544;2023-12-20T06:14:21;7.40;99.90
60039;DHT22;45916;52.734;6.544;2023-12-20T06:16:47;7.40;99.90
60039;DHT22;45916;52.734;6.544;2023-12-20T06:19:12;7.40;99.90
60039;DHT22;45916;52.734;6.544;2023-12-20T06:21:38;7.40;99.90
60039;DHT22;45916;52.734;6.544;2023-12-20T06:24:04;7.30;99.90
60039;DHT22;45916;52.734;6.544;2023-12-20T06:26:30;7.50;99.90
60039;DHT22;45916;52.734;6.544;2023-12-20T06:28:56;7.40;99.90
60039;DHT22;45916;52.734;6.544;2023-12-20T06:31:22;7.50;99.90
60039;DHT22;45916;52.734;6.544;2023-12-20T06:33:48;7.50;99.90
60039;DHT22;45916;52.734;6.544;2023-12-20T06:36:25;7.50;99.90
60039;DHT22;45916;52.734;6.544;2023-12-20T06:38:51;7.50;99.90
60039;DHT22;45916;52.734;6.544;2023-12-20T06:41:18;7.50;99.90
60039;DHT22;45916;52.734;6.544;2023-12-20T06:43:44;7.50;99.90
60039;DHT22;45916;52.734;6.544;2023-12-20T06:46:09;7.50;99.90
60039;DHT22;45916;52.734;6.544;2023-12-20T06:48:35;7.50;99.90
60039;DHT22;45916;52.734;6.544;2023-12-20T06:51:02;7.50;99.90
60039;DHT22;45916;52.734;6.544;2023-12-20T06:53:28;7.50;99.90
60039;DHT22;45916;52.734;6.544;2023-12-20T06:55:54;7.50;99.90
60039;DHT22;45916;52.734;6.544;2023-12-20T06:58:21;7.50;99.90
60039;DHT22;45916;52.734;6.544;2023-12-20T07:00:48;7.50;99.90
60039;DHT22;45916;52.734;6.544;2023-12-20T07:03:14;7.50;99.90
60039;DHT22;45916;52.734;6.544;2023-12-20T07:05:39;7.50;99.90
60039;DHT22;45916;52.734;6.544;2023-12-20T07:08:06;7.60;99.90
60039;DHT22;45916;52.734;6.544;2023-12-20T07:10:33;7.60;99.90
60039;DHT22;45916;52.734;6.544;2023-12-20T07:12:58;7.60;99.90
60039;DHT22;45916;52.734;6.544;2023-12-20T07:15:25;7.60;99.90
60039;DHT22;45916;52.734;6.544;2023-12-20T07:17:50;7.70;99.90
60039;DHT22;45916;52.734;6.544;2023-12-20T07:20:17;7.60;99.90
60039;DHT22;45916;52.734;6.544;2023-12-20T07:22:43;7.60;99.90
60039;DHT22;45916;52.734;6.544;2023-12-20T07:25:09;7.70;99.90
60039;DHT22;45916;52.734;6.544;2023-12-20T07:27:36;7.70;99.90
60039;DHT22;45916;52.734;6.544;2023-12-20T07:30:02;7.70;99.90
60039;DHT22;45916;52.734;6.544;2023-12-20T07:32:28;7.70;99.90
60039;DHT22;45916;52.734;6.544;2023-12-20T07:34:54;7.70;99.90
60039;DHT22;45916;52.734;6.544;2023-12-20T07:37:20;7.60;99.90
60039;DHT22;45916;52.734;6.544;2023-12-20T07:39:46;7.70;99.90
60039;DHT22;45916;52.734;6.544;2023-12-20T07:42:12;7.70;99.90
60039;DHT22;45916;52.734;6.544;2023-12-20T07:44:38;7.70;99.90
60039;DHT22;45916;52.734;6.544;2023-12-20T07:47:07;7.70;99.90
60039;DHT22;45916;52.734;6.544;2023-12-20T07:49:33;7.70;99.90
60039;DHT22;45916;52.734;6.544;2023-12-20T07:51:59;7.70;99.90
60039;DHT22;45916;52.734;6.544;2023-12-20T07:54:25;7.70;99.90
60039;DHT22;45916;52.734;6.544;2023-12-20T07:56:51;7.80;99.90
60039;DHT22;45916;52.734;6.544;2023-12-20T07:59:16;7.70;99.90
60039;DHT22;45916;52.734;6.544;2023-12-20T08:01:42;7.80;99.90
60039;DHT22;45916;52.734;6.544;2023-12-20T08:04:08;7.70;99.90
60039;DHT22;45916;52.734;6.544;2023-12-20T08:06:34;7.80;99.90
60039;DHT22;45916;52.734;6.544;2023-12-20T08:09:00;7.80;99.90
60039;DHT22;45916;52.734;6.544;2023-12-20T08:11:25;7.80;99.90
60039;DHT22;45916;52.734;6.544;2023-12-20T08:13:51;7.80;99.90
60039;DHT22;45916;52.734;6.544;2023-12-20T08:16:17;7.80;99.90
60039;DHT22;45916;52.734;6.544;2023-12-20T08:18:43;7.80;99.90
60039;DHT22;45916;52.734;6.544;2023-12-20T08:21:09;7.80;99.90
60039;DHT22;45916;52.734;6.544;2023-12-20T08:23:35;7.80;99.90
60039;DHT22;45916;52.734;6.544;2023-12-20T08:26:07;7.90;99.90
60039;DHT22;45916;52.734;6.544;2023-12-20T08:28:33;7.90;99.90
60039;DHT22;45916;52.734;6.544;2023-12-20T08:31:00;7.90;99.90
60039;DHT22;45916;52.734;6.544;2023-12-20T08:33:27;8.00;99.90
60039;DHT22;45916;52.734;6.544;2023-12-20T08:35:52;8.00;99.90
60039;DHT22;45916;52.734;6.544;2023-12-20T08:38:18;8.10;99.90
60039;DHT22;45916;52.734;6.544;2023-12-20T08:40:47;8.10;99.90
60039;DHT22;45916;52.734;6.544;2023-12-20T08:43:17;8.10;99.90
60039;DHT22;45916;52.734;6.544;2023-12-20T08:45:44;8.10;99.90
60039;DHT22;45916;52.734;6.544;2023-12-20T08:48:09;8.10;99.90
60039;DHT22;45916;52.734;6.544;2023-12-20T08:50:35;8.10;99.90
60039;DHT22;45916;52.734;6.544;2023-12-20T08:53:02;8.20;99.90
60039;DHT22;45916;52.734;6.544;2023-12-20T08:55:28;8.20;99.90
60039;DHT22;45916;52.734;6.544;2023-12-20T08:57:56;8.20;99.90
60039;DHT22;45916;52.734;6.544;2023-12-20T09:00:22;8.20;99.90
60039;DHT22;45916;52.734;6.544;2023-12-20T09:02:51;8.30;99.90
60039;DHT22;45916;52.734;6.544;2023-12-20T09:05:17;8.30;99.90
60039;DHT22;45916;52.734;6.544;2023-12-20T09:07:46;8.30;99.90
60039;DHT22;45916;52.734;6.544;2023-12-20T09:10:12;8.40;99.90
60039;DHT22;45916;52.734;6.544;2023-12-20T09:12:38;8.40;99.90
60039;DHT22;45916;52.734;6.544;2023-12-20T09:15:06;8.40;99.90
60039;DHT22;45916;52.734;6.544;2023-12-20T09:17:32;8.40;99.90
60039;DHT22;45916;52.734;6.544;2023-12-20T09:19:58;8.50;99.90
60039;DHT22;45916;52.734;6.544;2023-12-20T09:22:28;8.50;99.90
60039;DHT22;45916;52.734;6.544;2023-12-20T09:24:55;8.50;99.90
60039;DHT22;45916;52.734;6.544;2023-12-20T09:27:24;8.50;99.90
60039;DHT22;45916;52.734;6.544;2023-12-20T09:29:49;8.50;99.90
60039;DHT22;45916;52.734;6.544;2023-12-20T09:32:15;8.50;99.90
60039;DHT22;45916;52.734;6.544;2023-12-20T09:34:44;8.50;99.90
60039;DHT22;45916;52.734;6.544;2023-12-20T09:37:10;8.40;99.90
60039;DHT22;45916;52.734;6.544;2023-12-20T09:39:36;8.50;99.90
60039;DHT22;45916;52.734;6.544;2023-12-20T09:42:04;9.00;99.90
60039;DHT22;45916;52.734;6.544;2023-12-20T09:44:32;9.20;99.90
60039;DHT22;45916;52.734;6.544;2023-12-20T09:47:02;9.30;99.90
60039;DHT22;45916;52.734;6.544;2023-12-20T09:49:30;9.40;99.90
60039;DHT22;45916;52.734;6.544;2023-12-20T09:51:59;9.70;99.90
60039;DHT22;45916;52.734;6.544;2023-12-20T09:54:27;9.80;99.90
60039;DHT22;45916;52.734;6.544;2023-12-20T09:56:54;9.50;99.90
60039;DHT22;45916;52.734;6.544;2023-12-20T09:59:20;9.30;99.90
60039;DHT22;45916;52.734;6.544;2023-12-20T10:01:50;9.20;99.90
60039;DHT22;45916;52.734;6.544;2023-12-20T10:04:17;9.20;99.90
60039;DHT22;45916;52.734;6.544;2023-12-20T10:06:43;9.10;99.90
60039;DHT22;45916;52.734;6.544;2023-12-20T10:09:10;9.00;99.90
60039;DHT22;45916;52.734;6.544;2023-12-20T10:11:40;8.80;99.90
60039;DHT22;45916;52.734;6.544;2023-12-20T10:14:06;8.60;99.90
60039;DHT22;45916;52.734;6.544;2023-12-20T10:16:33;8.30;99.90
60039;DHT22;45916;52.734;6.544;2023-12-20T10:19:00;8.20;99.90
60039;DHT22;45916;52.734;6.544;2023-12-20T10:21:32;8.10;99.90
60039;DHT22;45916;52.734;6.544;2023-12-20T10:23:58;7.90;99.90
60039;DHT22;45916;52.734;6.544;2023-12-20T10:26:26;7.80;99.90
60039;DHT22;45916;52.734;6.544;2023-12-20T10:28:56;7.80;99.90
60039;DHT22;45916;52.734;6.544;2023-12-20T10:31:31;7.70;99.90
60039;DHT22;45916;52.734;6.544;2023-12-20T10:33:58;7.60;99.90
60039;DHT22;45916;52.734;6.544;2023-12-20T10:36:26;7.60;99.90
60039;DHT22;45916;52.734;6.544;2023-12-20T10:38:54;7.50;99.90
60039;DHT22;45916;52.734;6.544;2023-12-20T10:41:26;7.50;99.90
60039;DHT22;45916;52.734;6.544;2023-12-20T10:44:03;7.50;99.90
60039;DHT22;45916;52.734;6.544;2023-12-20T10:46:31;7.50;99.90
60039;DHT22;45916;52.734;6.544;2023-12-20T10:49:02;7.40;99.90
60039;DHT22;45916;52.734;6.544;2023-12-20T10:51:29;7.50;99.90
60039;DHT22;45916;52.734;6.544;2023-12-20T10:53:57;7.50;99.90
60039;DHT22;45916;52.734;6.544;2023-12-20T10:56:23;7.50;99.90
60039;DHT22;45916;52.734;6.544;2023-12-20T10:58:52;7.60;99.90
60039;DHT22;45916;52.734;6.544;2023-12-20T11:01:18;7.60;99.90
60039;DHT22;45916;52.734;6.544;2023-12-20T11:03:53;7.60;99.90
60039;DHT22;45916;52.734;6.544;2023-12-20T11:06:35;7.60;99.90
60039;DHT22;45916;52.734;6.544;2023-12-20T11:09:24;7.60;99.90
60039;DHT22;45916;52.734;6.544;2023-12-20T11:12:10;7.70;99.90
60039;DHT22;45916;52.734;6.544;2023-12-20T11:14:46;7.60;99.90
60039;DHT22;45916;52.734;6.544;2023-12-20T11:17:13;7.60;99.90
60039;DHT22;45916;52.734;6.544;2023-12-20T11:22:26;7.60;99.90
60039;DHT22;45916;52.734;6.544;2023-12-20T11:24:52;7.60;99.90
60039;DHT22;45916;52.734;6.544;2023-12-20T11:27:24;7.60;99.90
60039;DHT22;45916;52.734;6.544;2023-12-20T11:30:00;7.60;99.90
60039;DHT22;45916;52.734;6.544;2023-12-20T11:32:31;7.60;99.90
60039;DHT22;45916;52.734;6.544;2023-12-20T11:35:01;7.70;99.90
60039;DHT22;45916;52.734;6.544;2023-12-20T11:37:32;7.80;99.90
60039;DHT22;45916;52.734;6.544;2023-12-20T11:40:05;7.80;99.90
60039;DHT22;45916;52.734;6.544;2023-12-20T11:42:33;7.80;99.90
60039;DHT22;45916;52.734;6.544;2023-12-20T11:45:03;7.90;99.90
60039;DHT22;45916;52.734;6.544;2023-12-20T11:47:30;7.90;99.90
60039;DHT22;45916;52.734;6.544;2023-12-20T11:49:56;7.90;99.90
60039;DHT22;45916;52.734;6.544;2023-12-20T11:52:22;7.90;99.90
60039;DHT22;45916;52.734;6.544;2023-12-20T11:54:49;7.80;99.90
60039;DHT22;45916;52.734;6.544;2023-12-20T11:57:17;7.80;99.90
60039;DHT22;45916;52.734;6.544;2023-12-20T11:59:46;7.80;99.90
60039;DHT22;45916;52.734;6.544;2023-12-20T12:02:14;7.80;99.90
60039;DHT22;45916;52.734;6.544;2023-12-20T12:04:48;7.80;99.90
60039;DHT22;45916;52.734;6.544;2023-12-20T12:07:14;7.80;99.90
60039;DHT22;45916;52.734;6.544;2023-12-20T12:09:40;7.80;99.90
60039;DHT22;45916;52.734;6.544;2023-12-20T12:12:06;7.80;99.90
60039;DHT22;45916;52.734;6.544;2023-12-20T12:14:32;7.80;99.90
60039;DHT22;45916;52.734;6.544;2023-12-20T12:16:58;7.90;99.90
60039;DHT22;45916;52.734;6.544;2023-12-20T12:19:25;7.90;99.90
60039;DHT22;45916;52.734;6.544;2023-12-20T12:22:03;7.90;99.90
60039;DHT22;45916;52.734;6.544;2023-12-20T12:24:32;7.90;99.90
60039;DHT22;45916;52.734;6.544;2023-12-20T12:26:58;7.80;99.90
60039;DHT22;45916;52.734;6.544;2023-12-20T12:29:24;7.80;99.90
60039;DHT22;45916;52.734;6.544;2023-12-20T12:31:50;7.80;99.90
60039;DHT22;45916;52.734;6.544;2023-12-20T12:34:17;7.80;99.90
60039;DHT22;45916;52.734;6.544;2023-12-20T12:36:44;7.80;99.90
60039;DHT22;45916;52.734;6.544;2023-12-20T12:39:14;7.80;99.90
60039;DHT22;45916;52.734;6.544;2023-12-20T12:41:43;7.80;99.90
60039;DHT22;45916;52.734;6.544;2023-12-20T12:44:09;7.80;99.90
60039;DHT22;45916;52.734;6.544;2023-12-20T12:46:35;7.80;99.90
60039;DHT22;45916;52.734;6.544;2023-12-20T12:49:01;7.70;99.90
60039;DHT22;45916;52.734;6.544;2023-12-20T12:51:27;7.60;99.90
60039;DHT22;45916;52.734;6.544;2023-12-20T12:53:53;7.50;99.90
60039;DHT22;45916;52.734;6.544;2023-12-20T12:56:19;7.40;99.90
60039;DHT22;45916;52.734;6.544;2023-12-20T12:58:45;7.30;99.90
60039;DHT22;45916;52.734;6.544;2023-12-20T13:01:11;7.30;99.90
60039;DHT22;45916;52.734;6.544;2023-12-20T13:03:41;7.30;99.90
60039;DHT22;45916;52.734;6.544;2023-12-20T13:06:12;7.20;99.90
60039;DHT22;45916;52.734;6.544;2023-12-20T13:08:38;7.20;99.90
60039;DHT22;45916;52.734;6.544;2023-12-20T13:22:41;6.90;99.90
60039;DHT22;45916;52.734;6.544;2023-12-20T13:40:08;6.80;99.90
60039;DHT22;45916;52.734;6.544;2023-12-20T13:42:36;6.80;99.90
60039;DHT22;45916;52.734;6.544;2023-12-20T13:45:03;6.80;99.90
60039;DHT22;45916;52.734;6.544;2023-12-20T13:47:40;6.80;99.90
60039;DHT22;45916;52.734;6.544;2023-12-20T13:50:19;6.70;99.90
60039;DHT22;45916;52.734;6.544;2023-12-20T13:52:46;6.80;99.90
60039;DHT22;45916;52.734;6.544;2023-12-20T14:02:29;6.80;99.90
60039;DHT22;45916;52.734;6.544;2023-12-20T14:05:00;6.80;99.90
60039;DHT22;45916;52.734;6.544;2023-12-20T14:07:32;6.80;99.90
60039;DHT22;45916;52.734;6.544;2023-12-20T14:09:58;6.80;99.90
60039;DHT22;45916;52.734;6.544;2023-12-20T14:12:25;6.90;99.90
60039;DHT22;45916;52.734;6.544;2023-12-20T14:14:51;6.90;99.90
60039;DHT22;45916;52.734;6.544;2023-12-20T14:17:17;6.90;99.90
60039;DHT22;45916;52.734;6.544;2023-12-20T14:19:43;7.00;99.90
60039;DHT22;45916;52.734;6.544;2023-12-20T14:22:09;6.90;99.90
60039;DHT22;45916;52.734;6.544;2023-12-20T14:24:35;6.90;99.90
60039;DHT22;45916;52.734;6.544;2023-12-20T14:27:02;6.90;99.90
60039;DHT22;45916;52.734;6.544;2023-12-20T14:29:27;6.90;99.90
60039;DHT22;45916;52.734;6.544;2023-12-20T14:31:53;6.80;99.90
60039;DHT22;45916;52.734;6.544;2023-12-20T14:34:19;6.80;99.90
60039;DHT22;45916;52.734;6.544;2023-12-20T14:36:44;6.80;99.90
60039;DHT22;45916;52.734;6.544;2023-12-20T14:39:10;6.70;99.90
60039;DHT22;45916;52.734;6.544;2023-12-20T14:41:38;6.70;99.90
60039;DHT22;45916;52.734;6.544;2023-12-20T14:44:05;6.80;99.90
60039;DHT22;45916;52.734;6.544;2023-12-20T14:46:32;6.80;99.90
60039;DHT22;45916;52.734;6.544;2023-12-20T14:49:00;6.80;99.90
60039;DHT22;45916;52.734;6.544;2023-12-20T14:51:29;6.90;99.90
60039;DHT22;45916;52.734;6.544;2023-12-20T14:53:55;7.00;99.90
60039;DHT22;45916;52.734;6.544;2023-12-20T14:56:23;7.00;99.90
60039;DHT22;45916;52.734;6.544;2023-12-20T14:58:49;7.00;99.90
60039;DHT22;45916;52.734;6.544;2023-12-20T15:01:15;7.00;99.90
60039;DHT22;45916;52.734;6.544;2023-12-20T15:03:41;7.10;99.90
60039;DHT22;45916;52.734;6.544;2023-12-20T15:06:06;7.10;99.90
60039;DHT22;45916;52.734;6.544;2023-12-20T15:08:33;7.20;99.90
60039;DHT22;45916;52.734;6.544;2023-12-20T15:10:58;7.20;99.90
60039;DHT22;45916;52.734;6.544;2023-12-20T15:13:24;7.20;99.90
60039;DHT22;45916;52.734;6.544;2023-12-20T15:15:50;7.20;99.90
60039;DHT22;45916;52.734;6.544;2023-12-20T15:18:18;7.30;99.90
60039;DHT22;45916;52.734;6.544;2023-12-20T15:20:44;7.40;99.90
60039;DHT22;45916;52.734;6.544;2023-12-20T15:23:10;7.50;99.90
60039;DHT22;45916;52.734;6.544;2023-12-20T15:25:36;7.50;99.90
60039;DHT22;45916;52.734;6.544;2023-12-20T15:42:31;7.80;99.90
60039;DHT22;45916;52.734;6.544;2023-12-20T15:44:58;7.80;99.90
60039;DHT22;45916;52.734;6.544;2023-12-20T15:47:23;7.70;99.90
60039;DHT22;45916;52.734;6.544;2023-12-20T15:49:49;7.70;99.90
60039;DHT22;45916;52.734;6.544;2023-12-20T15:52:15;7.70;99.90
60039;DHT22;45916;52.734;6.544;2023-12-20T15:54:41;7.70;99.90
60039;DHT22;45916;52.734;6.544;2023-12-20T15:57:07;7.70;99.90
60039;DHT22;45916;52.734;6.544;2023-12-20T15:59:33;7.70;99.90
60039;DHT22;45916;52.734;6.544;2023-12-20T16:01:58;7.60;99.90
60039;DHT22;45916;52.734;6.544;2023-12-20T16:04:26;7.70;99.90
60039;DHT22;45916;52.734;6.544;2023-12-20T16:06:54;7.70;99.90
60039;DHT22;45916;52.734;6.544;2023-12-20T16:09:20;7.70;99.90
60039;DHT22;45916;52.734;6.544;2023-12-20T16:11:46;7.70;99.90
60039;DHT22;45916;52.734;6.544;2023-12-20T16:14:11;7.70;99.90
60039;DHT22;45916;52.734;6.544;2023-12-20T16:16:43;7.70;99.90
60039;DHT22;45916;52.734;6.544;2023-12-20T16:19:09;7.70;99.90
60039;DHT22;45916;52.734;6.544;2023-12-20T16:21:35;7.70;99.90
60039;DHT22;45916;52.734;6.544;2023-12-20T16:24:01;7.70;99.90
60039;DHT22;45916;52.734;6.544;2023-12-20T16:26:27;7.70;99.90
60039;DHT22;45916;52.734;6.544;2023-12-20T16:28:53;7.70;99.90
60039;DHT22;45916;52.734;6.544;2023-12-20T16:31:19;7.80;99.90
60039;DHT22;45916;52.734;6.544;2023-12-20T16:33:45;7.80;99.90